sensor_id;sensor_type;location;lat;lon;timestamp;temperature;humidity
44229;DHT22;29904;51.058;5.378;2023-06-10T00:02:18;21.40;99.90
44229;DHT22;29904;51.058;5.378;2023-06-10T00:04:44;21.30;99.90
44229;DHT22;29904;51.058;5.378;2023-06-10T00:07:12;21.30;99.90
44229;DHT22;29904;51.058;5.378;2023-06-10T00:09:38;21.20;99.90
44229;DHT22;29904;51.058;5.378;2023-06-10T00:12:08;21.20;99.90
44229;DHT22;29904;51.058;5.378;2023-06-10T00:14:39;21.20;99.90
44229;DHT22;29904;51.058;5.378;2023-06-10T00:17:05;21.20;99.90
44229;DHT22;29904;51.058;5.378;2023-06-10T00:19:34;21.10;99.90
44229;DHT22;29904;51.058;5.378;2023-06-10T00:22:00;21.10;99.90
44229;DHT22;29904;51.058;5.378;2023-06-10T00:24:28;21.00;99.90
44229;DHT22;29904;51.058;5.378;2023-06-10T00:26:53;21.00;99.90
44229;DHT22;29904;51.058;5.378;2023-06-10T00:29:19;20.90;99.90
44229;DHT22;29904;51.058;5.378;2023-06-10T00:31:45;20.90;99.90
44229;DHT22;29904;51.058;5.378;2023-06-10T00:34:12;20.90;99.90
44229;DHT22;29904;51.058;5.378;2023-06-10T00:36:38;20.80;99.90
44229;DHT22;29904;51.058;5.378;2023-06-10T00:39:04;20.80;99.90
44229;DHT22;29904;51.058;5.378;2023-06-10T00:41:30;20.80;99.90
44229;DHT22;29904;51.058;5.378;2023-06-10T00:43:56;20.70;99.90
44229;DHT22;29904;51.058;5.378;2023-06-10T00:46:24;20.70;99.90
44229;DHT22;29904;51.058;5.378;2023-06-10T00:48:51;20.70;99.90
44229;DHT22;29904;51.058;5.378;2023-06-10T00:51:17;20.60;99.90
44229;DHT22;29904;51.058;5.378;2023-06-10T00:53:44;20.60;99.90
44229;DHT22;29904;51.058;5.378;2023-06-10T00:56:12;20.60;99.90
44229;DHT22;29904;51.058;5.378;2023-06-10T00:58:38;20.60;99.90
44229;DHT22;29904;51.058;5.378;2023-06-10T01:01:04;20.50;99.90
44229;DHT22;29904;51.058;5.378;2023-06-10T01:03:30;20.50;99.90
44229;DHT22;29904;51.058;5.378;2023-06-10T01:06:01;20.50;99.90
44229;DHT22;29904;51.058;5.378;2023-06-10T01:08:46;20.50;99.90
44229;DHT22;29904;51.058;5.378;2023-06-10T01:11:21;20.40;99.90
44229;DHT22;29904;51.058;5.378;2023-06-10T01:13:49;20.40;99.90
44229;DHT22;29904;51.058;5.378;2023-06-10T01:16:18;20.40;99.90
44229;DHT22;29904;51.058;5.378;2023-06-10T01:18:45;20.40;99.90
44229;DHT22;29904;51.058;5.378;2023-06-10T01:21:22;20.40;99.90
44229;DHT22;29904;51.058;5.378;2023-06-10T01:23:51;20.30;99.90
44229;DHT22;29904;51.058;5.378;2023-06-10T01:26:20;20.30;99.90
44229;DHT22;29904;51.058;5.378;2023-06-10T01:28:57;20.30;99.90
44229;DHT22;29904;51.058;5.378;2023-06-10T01:31:31;20.30;99.90
44229;DHT22;29904;51.058;5.378;2023-06-10T01:34:03;20.30;99.90
44229;DHT22;29904;51.058;5.378;2023-06-10T01:36:34;20.20;99.90
44229;DHT22;29904;51.058;5.378;2023-06-10T01:39:00;20.20;99.90
44229;DHT22;29904;51.058;5.378;2023-06-10T01:41:28;20.20;99.90
44229;DHT22;29904;51.058;5.378;2023-06-10T01:43:56;20.20;99.90
44229;DHT22;29904;51.058;5.378;2023-06-10T01:46:22;20.20;99.90
44229;DHT22;29904;51.058;5.378;2023-06-10T01:48:48;20.10;99.90
44229;DHT22;29904;51.058;5.378;2023-06-10T01:51:14;20.10;99.90
44229;DHT22;29904;51.058;5.378;2023-06-10T01:53:39;20.10;99.90
44229;DHT22;29904;51.058;5.378;2023-06-10T01:56:05;20.10;99.90
44229;DHT22;29904;51.058;5.378;2023-06-10T01:58:31;20.00;99.90
44229;DHT22;29904;51.058;5.378;2023-06-10T02:00:57;20.00;99.90
44229;DHT22;29904;51.058;5.378;2023-06-10T02:03:22;20.00;99.90
44229;DHT22;29904;51.058;5.378;2023-06-10T02:05:50;20.00;99.90
44229;DHT22;29904;51.058;5.378;2023-06-10T02:08:16;19.90;99.90
44229;DHT22;29904;51.058;5.378;2023-06-10T02:10:42;19.90;99.90
44229;DHT22;29904;51.058;5.378;2023-06-10T02:13:09;19.90;99.90
44229;DHT22;29904;51.058;5.378;2023-06-10T02:15:35;19.90;99.90
44229;DHT22;29904;51.058;5.378;2023-06-10T02:18:01;19.80;99.90
44229;DHT22;29904;51.058;5.378;2023-06-10T02:20:29;19.80;99.90
44229;DHT22;29904;51.058;5.378;2023-06-10T02:22:58;19.70;99.90
44229;DHT22;29904;51.058;5.378;2023-06-10T02:25:24;19.70;99.90
44229;DHT22;29904;51.058;5.378;2023-06-10T02:27:50;19.70;99.90
44229;DHT22;29904;51.058;5.378;2023-06-10T02:30:15;19.60;99.90
44229;DHT22;29904;51.058;5.378;2023-06-10T02:32:41;19.60;99.90
44229;DHT22;29904;51.058;5.378;2023-06-10T02:35:07;19.60;99.90
44229;DHT22;29904;51.058;5.378;2023-06-10T02:37:33;19.50;99.90
44229;DHT22;29904;51.058;5.378;2023-06-10T02:39:59;19.50;99.90
44229;DHT22;29904;51.058;5.378;2023-06-10T02:42:26;19.50;99.90
44229;DHT22;29904;51.058;5.378;2023-06-10T02:44:52;19.50;99.90
44229;DHT22;29904;51.058;5.378;2023-06-10T02:47:18;19.50;99.90
44229;DHT22;29904;51.058;5.378;2023-06-10T02:49:44;19.50;99.90
44229;DHT22;29904;51.058;5.378;2023-06-10T02:52:09;19.40;99.90
44229;DHT22;29904;51.058;5.378;2023-06-10T02:54:36;19.40;99.90
44229;DHT22;29904;51.058;5.378;2023-06-10T02:57:02;19.40;99.90
44229;DHT22;29904;51.058;5.378;2023-06-10T02:59:28;19.30;99.90
44229;DHT22;29904;51.058;5.378;2023-06-10T03:01:56;19.30;99.90
44229;DHT22;29904;51.058;5.378;2023-06-10T03:04:21;19.30;99.90
44229;DHT22;29904;51.058;5.378;2023-06-10T03:06:49;19.30;99.90
44229;DHT22;29904;51.058;5.378;2023-06-10T03:09:16;19.30;99.90
44229;DHT22;29904;51.058;5.378;2023-06-10T03:11:42;19.30;99.90
44229;DHT22;29904;51.058;5.378;2023-06-10T03:14:08;19.20;99.90
44229;DHT22;29904;51.058;5.378;2023-06-10T03:16:35;19.20;99.90
44229;DHT22;29904;51.058;5.378;2023-06-10T03:19:06;19.20;99.90
44229;DHT22;29904;51.058;5.378;2023-06-10T03:21:33;19.10;99.90
44229;DHT22;29904;51.058;5.378;2023-06-10T03:23:59;19.10;99.90
44229;DHT22;29904;51.058;5.378;2023-06-10T03:26:26;19.10;99.90
44229;DHT22;29904;51.058;5.378;2023-06-10T03:28:53;19.10;99.90
44229;DHT22;29904;51.058;5.378;2023-06-10T03:31:19;19.00;99.90
44229;DHT22;29904;51.058;5.378;2023-06-10T03:33:44;19.00;99.90
44229;DHT22;29904;51.058;5.378;2023-06-10T03:36:10;19.00;99.90
44229;DHT22;29904;51.058;5.378;2023-06-10T03:38:36;19.00;99.90
44229;DHT22;29904;51.058;5.378;2023-06-10T03:41:04;18.90;99.90
44229;DHT22;29904;51.058;5.378;2023-06-10T03:43:29;18.90;99.90
44229;DHT22;29904;51.058;5.378;2023-06-10T03:45:56;18.90;99.90
44229;DHT22;29904;51.058;5.378;2023-06-10T03:48:22;18.80;99.90
44229;DHT22;29904;51.058;5.378;2023-06-10T03:50:48;18.80;99.90
44229;DHT22;29904;51.058;5.378;2023-06-10T03:53:16;18.80;99.90
44229;DHT22;29904;51.058;5.378;2023-06-10T03:55:44;18.80;99.90
44229;DHT22;29904;51.058;5.378;2023-06-10T03:58:11;18.80;99.90
44229;DHT22;29904;51.058;5.378;2023-06-10T04:00:38;18.80;99.90
44229;DHT22;29904;51.058;5.378;2023-06-10T04:03:08;18.80;99.90
44229;DHT22;29904;51.058;5.378;2023-06-10T04:05:35;18.80;99.90
44229;DHT22;29904;51.058;5.378;2023-06-10T04:08:00;18.80;99.90
44229;DHT22;29904;51.058;5.378;2023-06-10T04:10:27;18.80;99.90
44229;DHT22;29904;51.058;5.378;2023-06-10T04:12:53;18.90;99.90
44229;DHT22;29904;51.058;5.378;2023-06-10T04:15:19;18.90;99.90
44229;DHT22;29904;51.058;5.378;2023-06-10T04:17:47;18.90;99.90
44229;DHT22;29904;51.058;5.378;2023-06-10T04:20:14;18.90;99.90
44229;DHT22;29904;51.058;5.378;2023-06-10T04:22:40;18.90;99.90
44229;DHT22;29904;51.058;5.378;2023-06-10T04:25:09;18.90;99.90
44229;DHT22;29904;51.058;5.378;2023-06-10T04:27:35;19.00;99.90
44229;DHT22;29904;51.058;5.378;2023-06-10T04:30:01;19.00;99.90
44229;DHT22;29904;51.058;5.378;2023-06-10T04:32:26;19.10;99.90
44229;DHT22;29904;51.058;5.378;2023-06-10T04:34:52;19.10;99.90
44229;DHT22;29904;51.058;5.378;2023-06-10T04:37:20;19.10;99.90
44229;DHT22;29904;51.058;5.378;2023-06-10T04:39:45;19.10;99.90
44229;DHT22;29904;51.058;5.378;2023-06-10T04:42:11;19.20;99.90
44229;DHT22;29904;51.058;5.378;2023-06-10T04:44:37;19.20;99.90
44229;DHT22;29904;51.058;5.378;2023-06-10T04:47:02;19.30;99.90
44229;DHT22;29904;51.058;5.378;2023-06-10T04:49:28;19.30;99.90
44229;DHT22;29904;51.058;5.378;2023-06-10T04:51:55;19.30;99.90
44229;DHT22;29904;51.058;5.378;2023-06-10T04:54:22;19.40;99.90
44229;DHT22;29904;51.058;5.378;2023-06-10T04:56:48;19.50;99.90
44229;DHT22;29904;51.058;5.378;2023-06-10T04:59:14;19.60;99.90
44229;DHT22;29904;51.058;5.378;2023-06-10T05:01:40;19.80;99.90
44229;DHT22;29904;51.058;5.378;2023-06-10T05:04:05;20.20;99.90
44229;DHT22;29904;51.058;5.378;2023-06-10T05:06:31;20.60;99.90
44229;DHT22;29904;51.058;5.378;2023-06-10T05:08:59;20.70;99.90
44229;DHT22;29904;51.058;5.378;2023-06-10T05:11:25;20.80;99.90
44229;DHT22;29904;51.058;5.378;2023-06-10T05:13:50;20.90;99.90
44229;DHT22;29904;51.058;5.378;2023-06-10T05:16:17;21.00;99.90
44229;DHT22;29904;51.058;5.378;2023-06-10T05:18:42;20.90;99.90
44229;DHT22;29904;51.058;5.378;2023-06-10T05:21:08;20.80;99.90
44229;DHT22;29904;51.058;5.378;2023-06-10T05:23:36;20.70;99.90
44229;DHT22;29904;51.058;5.378;2023-06-10T05:26:04;20.70;99.90
44229;DHT22;29904;51.058;5.378;2023-06-10T05:28:30;20.70;99.90
44229;DHT22;29904;51.058;5.378;2023-06-10T05:30:56;20.80;99.90
44229;DHT22;29904;51.058;5.378;2023-06-10T05:33:23;20.80;99.90
44229;DHT22;29904;51.058;5.378;2023-06-10T05:35:49;20.80;99.90
44229;DHT22;29904;51.058;5.378;2023-06-10T05:38:15;20.90;99.90
44229;DHT22;29904;51.058;5.378;2023-06-10T05:40:41;21.00;99.90
44229;DHT22;29904;51.058;5.378;2023-06-10T05:43:07;21.00;99.90
44229;DHT22;29904;51.058;5.378;2023-06-10T05:45:32;21.10;99.90
44229;DHT22;29904;51.058;5.378;2023-06-10T05:47:59;21.10;99.90
44229;DHT22;29904;51.058;5.378;2023-06-10T05:50:25;21.20;99.90
44229;DHT22;29904;51.058;5.378;2023-06-10T05:52:51;21.30;99.90
44229;DHT22;29904;51.058;5.378;2023-06-10T05:55:19;21.40;99.90
44229;DHT22;29904;51.058;5.378;2023-06-10T05:57:45;21.60;99.90
44229;DHT22;29904;51.058;5.378;2023-06-10T06:00:11;21.60;99.90
44229;DHT22;29904;51.058;5.378;2023-06-10T06:02:37;21.70;99.90
44229;DHT22;29904;51.058;5.378;2023-06-10T06:05:05;21.70;99.90
44229;DHT22;29904;51.058;5.378;2023-06-10T06:07:30;21.80;99.90
44229;DHT22;29904;51.058;5.378;2023-06-10T06:09:56;21.90;99.90
44229;DHT22;29904;51.058;5.378;2023-06-10T06:12:22;21.90;99.90
44229;DHT22;29904;51.058;5.378;2023-06-10T06:14:48;22.00;99.90
44229;DHT22;29904;51.058;5.378;2023-06-10T06:17:14;22.10;99.90
44229;DHT22;29904;51.058;5.378;2023-06-10T06:19:40;22.20;99.90
44229;DHT22;29904;51.058;5.378;2023-06-10T06:22:06;22.30;99.90
44229;DHT22;29904;51.058;5.378;2023-06-10T06:24:31;22.50;99.90
44229;DHT22;29904;51.058;5.378;2023-06-10T06:26:57;22.80;99.90
44229;DHT22;29904;51.058;5.378;2023-06-10T06:29:23;22.90;99.90
44229;DHT22;29904;51.058;5.378;2023-06-10T06:31:48;22.90;99.90
44229;DHT22;29904;51.058;5.378;2023-06-10T06:34:14;22.90;99.90
44229;DHT22;29904;51.058;5.378;2023-06-10T06:36:40;23.00;99.90
44229;DHT22;29904;51.058;5.378;2023-06-10T06:39:06;23.20;99.90
44229;DHT22;29904;51.058;5.378;2023-06-10T06:41:31;23.60;99.90
44229;DHT22;29904;51.058;5.378;2023-06-10T06:43:57;24.20;99.90
44229;DHT22;29904;51.058;5.378;2023-06-10T06:46:23;24.20;99.90
44229;DHT22;29904;51.058;5.378;2023-06-10T06:48:49;24.10;99.90
44229;DHT22;29904;51.058;5.378;2023-06-10T06:51:14;24.00;99.90
44229;DHT22;29904;51.058;5.378;2023-06-10T06:53:40;24.00;99.90
44229;DHT22;29904;51.058;5.378;2023-06-10T06:56:11;24.10;99.90
44229;DHT22;29904;51.058;5.378;2023-06-10T06:58:37;24.20;99.90
44229;DHT22;29904;51.058;5.378;2023-06-10T07:01:03;24.20;99.90
44229;DHT22;29904;51.058;5.378;2023-06-10T07:03:29;24.30;99.90
44229;DHT22;29904;51.058;5.378;2023-06-10T07:05:55;24.30;99.90
44229;DHT22;29904;51.058;5.378;2023-06-10T07:08:21;24.30;99.90
44229;DHT22;29904;51.058;5.378;2023-06-10T07:10:46;24.30;99.90
44229;DHT22;29904;51.058;5.378;2023-06-10T07:13:12;24.40;99.90
44229;DHT22;29904;51.058;5.378;2023-06-10T07:15:38;24.40;99.90
44229;DHT22;29904;51.058;5.378;2023-06-10T07:18:04;24.50;99.90
44229;DHT22;29904;51.058;5.378;2023-06-10T07:20:30;24.50;99.90
44229;DHT22;29904;51.058;5.378;2023-06-10T07:22:56;24.60;99.90
44229;DHT22;29904;51.058;5.378;2023-06-10T07:25:22;24.60;99.90
44229;DHT22;29904;51.058;5.378;2023-06-10T07:27:49;24.70;99.90
44229;DHT22;29904;51.058;5.378;2023-06-10T07:30:15;24.80;99.90
44229;DHT22;29904;51.058;5.378;2023-06-10T07:32:41;24.80;99.90
44229;DHT22;29904;51.058;5.378;2023-06-10T07:35:09;24.90;99.90
44229;DHT22;29904;51.058;5.378;2023-06-10T07:37:38;25.00;99.90
44229;DHT22;29904;51.058;5.378;2023-06-10T07:40:04;25.10;99.90
44229;DHT22;29904;51.058;5.378;2023-06-10T07:42:34;25.10;99.90
44229;DHT22;29904;51.058;5.378;2023-06-10T07:45:02;25.20;99.90
44229;DHT22;29904;51.058;5.378;2023-06-10T07:47:29;25.40;99.90
44229;DHT22;29904;51.058;5.378;2023-06-10T07:49:54;25.60;99.90
44229;DHT22;29904;51.058;5.378;2023-06-10T07:52:23;26.00;99.90
44229;DHT22;29904;51.058;5.378;2023-06-10T07:54:49;26.80;99.90
44229;DHT22;29904;51.058;5.378;2023-06-10T07:57:15;27.50;99.90
44229;DHT22;29904;51.058;5.378;2023-06-10T07:59:41;27.90;99.90
44229;DHT22;29904;51.058;5.378;2023-06-10T08:02:07;28.20;99.90
44229;DHT22;29904;51.058;5.378;2023-06-10T08:04:34;28.50;99.90
44229;DHT22;29904;51.058;5.378;2023-06-10T08:07:02;28.80;99.90
44229;DHT22;29904;51.058;5.378;2023-06-10T08:09:29;29.00;99.90
44229;DHT22;29904;51.058;5.378;2023-06-10T08:11:56;29.20;99.90
44229;DHT22;29904;51.058;5.378;2023-06-10T08:14:25;29.20;99.90
44229;DHT22;29904;51.058;5.378;2023-06-10T08:16:53;29.30;99.90
44229;DHT22;29904;51.058;5.378;2023-06-10T08:19:20;29.40;99.90
44229;DHT22;29904;51.058;5.378;2023-06-10T08:21:47;29.60;99.90
44229;DHT22;29904;51.058;5.378;2023-06-10T08:24:14;29.80;99.90
44229;DHT22;29904;51.058;5.378;2023-06-10T08:26:43;29.70;99.90
44229;DHT22;29904;51.058;5.378;2023-06-10T08:29:12;29.60;99.90
44229;DHT22;29904;51.058;5.378;2023-06-10T08:31:42;29.90;99.90
44229;DHT22;29904;51.058;5.378;2023-06-10T08:34:09;30.00;99.90
44229;DHT22;29904;51.058;5.378;2023-06-10T08:36:36;30.10;99.90
44229;DHT22;29904;51.058;5.378;2023-06-10T08:39:04;30.00;99.90
44229;DHT22;29904;51.058;5.378;2023-06-10T08:41:35;30.10;99.90
44229;DHT22;29904;51.058;5.378;2023-06-10T08:44:24;30.20;99.90
44229;DHT22;29904;51.058;5.378;2023-06-10T08:46:53;30.00;99.90
44229;DHT22;29904;51.058;5.378;2023-06-10T08:49:23;30.20;99.90
44229;DHT22;29904;51.058;5.378;2023-06-10T08:51:55;30.40;99.90
44229;DHT22;29904;51.058;5.378;2023-06-10T08:54:28;30.40;99.90
44229;DHT22;29904;51.058;5.378;2023-06-10T08:56:57;30.30;99.90
44229;DHT22;29904;51.058;5.378;2023-06-10T08:59:25;30.40;99.90
44229;DHT22;29904;51.058;5.378;2023-06-10T09:01:55;30.40;99.00
44229;DHT22;29904;51.058;5.378;2023-06-10T09:04:24;30.40;99.90
44229;DHT22;29904;51.058;5.378;2023-06-10T09:06:54;30.50;99.70
44229;DHT22;29904;51.058;5.378;2023-06-10T09:09:23;30.50;99.50
44229;DHT22;29904;51.058;5.378;2023-06-10T09:11:51;30.60;99.70
44229;DHT22;29904;51.058;5.378;2023-06-10T09:14:17;30.80;99.00
44229;DHT22;29904;51.058;5.378;2023-06-10T09:16:43;30.90;99.90
44229;DHT22;29904;51.058;5.378;2023-06-10T09:19:09;31.00;99.90
44229;DHT22;29904;51.058;5.378;2023-06-10T09:21:36;31.10;98.30
44229;DHT22;29904;51.058;5.378;2023-06-10T09:24:02;31.10;97.80
44229;DHT22;29904;51.058;5.378;2023-06-10T09:26:29;31.20;97.90
44229;DHT22;29904;51.058;5.378;2023-06-10T09:29:05;31.20;97.40
44229;DHT22;29904;51.058;5.378;2023-06-10T09:31:36;31.10;97.00
44229;DHT22;29904;51.058;5.378;2023-06-10T09:34:10;31.20;96.80
44229;DHT22;29904;51.058;5.378;2023-06-10T09:36:37;31.10;96.60
44229;DHT22;29904;51.058;5.378;2023-06-10T09:39:04;31.00;96.50
44229;DHT22;29904;51.058;5.378;2023-06-10T09:41:34;31.10;96.70
44229;DHT22;29904;51.058;5.378;2023-06-10T09:44:02;31.30;96.70
44229;DHT22;29904;51.058;5.378;2023-06-10T09:46:34;31.30;95.70
44229;DHT22;29904;51.058;5.378;2023-06-10T09:49:00;31.50;96.10
44229;DHT22;29904;51.058;5.378;2023-06-10T09:51:26;31.60;95.90
44229;DHT22;29904;51.058;5.378;2023-06-10T09:53:52;31.80;95.20
44229;DHT22;29904;51.058;5.378;2023-06-10T09:56:18;31.80;95.40
44229;DHT22;29904;51.058;5.378;2023-06-10T09:58:45;31.70;93.90
44229;DHT22;29904;51.058;5.378;2023-06-10T10:01:13;31.70;95.60
44229;DHT22;29904;51.058;5.378;2023-06-10T10:03:50;31.90;95.80
44229;DHT22;29904;51.058;5.378;2023-06-10T10:06:17;31.90;94.20
44229;DHT22;29904;51.058;5.378;2023-06-10T10:08:43;32.00;93.40
44229;DHT22;29904;51.058;5.378;2023-06-10T10:11:11;31.90;93.20
44229;DHT22;29904;51.058;5.378;2023-06-10T10:13:37;31.80;92.90
44229;DHT22;29904;51.058;5.378;2023-06-10T10:16:11;31.70;92.70
44229;DHT22;29904;51.058;5.378;2023-06-10T10:18:40;31.70;91.90
44229;DHT22;29904;51.058;5.378;2023-06-10T10:21:11;31.60;92.80
44229;DHT22;29904;51.058;5.378;2023-06-10T10:24:20;31.60;92.40
44229;DHT22;29904;51.058;5.378;2023-06-10T10:26:48;31.60;92.10
44229;DHT22;29904;51.058;5.378;2023-06-10T10:31:43;31.80;93.70
44229;DHT22;29904;51.058;5.378;2023-06-10T10:37:09;32.00;91.10
44229;DHT22;29904;51.058;5.378;2023-06-10T10:39:36;31.50;91.50
44229;DHT22;29904;51.058;5.378;2023-06-10T10:42:02;31.30;92.00
44229;DHT22;29904;51.058;5.378;2023-06-10T10:44:30;31.50;91.40
44229;DHT22;29904;51.058;5.378;2023-06-10T10:46:59;31.40;91.10
44229;DHT22;29904;51.058;5.378;2023-06-10T10:49:30;31.60;91.80
44229;DHT22;29904;51.058;5.378;2023-06-10T10:52:00;31.70;90.30
44229;DHT22;29904;51.058;5.378;2023-06-10T10:54:33;31.70;91.50
44229;DHT22;29904;51.058;5.378;2023-06-10T11:02:10;32.20;90.10
44229;DHT22;29904;51.058;5.378;2023-06-10T11:04:36;32.20;91.30
44229;DHT22;29904;51.058;5.378;2023-06-10T11:07:07;32.40;89.70
44229;DHT22;29904;51.058;5.378;2023-06-10T11:09:33;32.40;89.10
44229;DHT22;29904;51.058;5.378;2023-06-10T11:11:59;32.20;89.60
44229;DHT22;29904;51.058;5.378;2023-06-10T11:14:30;32.40;87.00
44229;DHT22;29904;51.058;5.378;2023-06-10T11:16:58;32.40;84.90
44229;DHT22;29904;51.058;5.378;2023-06-10T11:19:35;32.50;87.30
44229;DHT22;29904;51.058;5.378;2023-06-10T11:22:03;32.60;86.20
44229;DHT22;29904;51.058;5.378;2023-06-10T11:24:29;32.40;83.50
44229;DHT22;29904;51.058;5.378;2023-06-10T11:27:14;32.40;88.10
44229;DHT22;29904;51.058;5.378;2023-06-10T11:30:39;32.30;87.50
44229;DHT22;29904;51.058;5.378;2023-06-10T11:32:42;32.40;85.40
44229;DHT22;29904;51.058;5.378;2023-06-10T11:35:08;32.60;86.20
44229;DHT22;29904;51.058;5.378;2023-06-10T11:37:36;32.80;83.30
44229;DHT22;29904;51.058;5.378;2023-06-10T11:40:02;32.80;84.20
44229;DHT22;29904;51.058;5.378;2023-06-10T11:42:29;32.60;81.80
44229;DHT22;29904;51.058;5.378;2023-06-10T11:44:57;32.40;82.30
44229;DHT22;29904;51.058;5.378;2023-06-10T11:47:24;32.50;84.50
44229;DHT22;29904;51.058;5.378;2023-06-10T11:50:01;32.60;82.50
44229;DHT22;29904;51.058;5.378;2023-06-10T11:52:30;32.80;83.80
44229;DHT22;29904;51.058;5.378;2023-06-10T11:54:58;33.20;82.60
44229;DHT22;29904;51.058;5.378;2023-06-10T11:57:25;33.40;76.60
44229;DHT22;29904;51.058;5.378;2023-06-10T11:59:51;32.80;78.20
44229;DHT22;29904;51.058;5.378;2023-06-10T12:02:20;32.50;80.70
44229;DHT22;29904;51.058;5.378;2023-06-10T12:04:49;32.40;81.60
44229;DHT22;29904;51.058;5.378;2023-06-10T12:07:19;32.50;80.70
44229;DHT22;29904;51.058;5.378;2023-06-10T12:09:58;32.90;77.10
44229;DHT22;29904;51.058;5.378;2023-06-10T12:12:26;33.50;79.80
44229;DHT22;29904;51.058;5.378;2023-06-10T12:14:59;33.80;77.20
44229;DHT22;29904;51.058;5.378;2023-06-10T12:19:57;33.30;74.50
44229;DHT22;29904;51.058;5.378;2023-06-10T12:22:23;33.30;75.10
44229;DHT22;29904;51.058;5.378;2023-06-10T12:25:04;33.30;72.80
44229;DHT22;29904;51.058;5.378;2023-06-10T12:27:30;33.30;71.80
44229;DHT22;29904;51.058;5.378;2023-06-10T12:29:58;33.50;72.40
44229;DHT22;29904;51.058;5.378;2023-06-10T12:32:41;33.40;67.50
44229;DHT22;29904;51.058;5.378;2023-06-10T12:35:08;33.20;67.60
44229;DHT22;29904;51.058;5.378;2023-06-10T12:37:34;33.00;70.30
44229;DHT22;29904;51.058;5.378;2023-06-10T12:40:01;32.90;69.10
44229;DHT22;29904;51.058;5.378;2023-06-10T12:42:32;32.90;69.60
44229;DHT22;29904;51.058;5.378;2023-06-10T12:45:00;33.00;70.80
44229;DHT22;29904;51.058;5.378;2023-06-10T12:47:33;33.00;69.80
44229;DHT22;29904;51.058;5.378;2023-06-10T12:50:05;33.10;69.80
44229;DHT22;29904;51.058;5.378;2023-06-10T12:52:31;33.30;68.60
44229;DHT22;29904;51.058;5.378;2023-06-10T12:54:58;33.30;67.60
44229;DHT22;29904;51.058;5.378;2023-06-10T12:57:24;33.20;65.90
44229;DHT22;29904;51.058;5.378;2023-06-10T12:59:52;33.20;66.40
44229;DHT22;29904;51.058;5.378;2023-06-10T13:02:21;33.20;68.80
44229;DHT22;29904;51.058;5.378;2023-06-10T13:04:52;33.10;64.90
44229;DHT22;29904;51.058;5.378;2023-06-10T13:07:20;33.00;66.20
44229;DHT22;29904;51.058;5.378;2023-06-10T13:09:47;33.00;65.90
44229;DHT22;29904;51.058;5.378;2023-06-10T13:12:14;33.10;62.80
44229;DHT22;29904;51.058;5.378;2023-06-10T13:14:40;33.00;65.30
44229;DHT22;29904;51.058;5.378;2023-06-10T13:17:06;33.20;61.80
44229;DHT22;29904;51.058;5.378;2023-06-10T13:19:32;33.30;65.50
44229;DHT22;29904;51.058;5.378;2023-06-10T13:22:00;33.50;66.60
44229;DHT22;29904;51.058;5.378;2023-06-10T13:24:26;33.60;65.50
44229;DHT22;29904;51.058;5.378;2023-06-10T13:26:52;33.20;65.30
44229;DHT22;29904;51.058;5.378;2023-06-10T13:29:18;33.00;68.20
44229;DHT22;29904;51.058;5.378;2023-06-10T13:31:45;33.20;67.70
44229;DHT22;29904;51.058;5.378;2023-06-10T13:34:13;33.30;66.50
44229;DHT22;29904;51.058;5.378;2023-06-10T13:36:39;33.30;63.20
44229;DHT22;29904;51.058;5.378;2023-06-10T13:39:04;33.20;66.40
44229;DHT22;29904;51.058;5.378;2023-06-10T13:41:30;33.20;63.20
44229;DHT22;29904;51.058;5.378;2023-06-10T13:43:56;33.10;62.60
44229;DHT22;29904;51.058;5.378;2023-06-10T13:46:22;33.00;63.00
44229;DHT22;29904;51.058;5.378;2023-06-10T13:48:50;33.00;63.30
44229;DHT22;29904;51.058;5.378;2023-06-10T13:51:16;33.20;63.70
44229;DHT22;29904;51.058;5.378;2023-06-10T13:53:42;33.30;64.50
44229;DHT22;29904;51.058;5.378;2023-06-10T13:56:08;33.40;63.00
44229;DHT22;29904;51.058;5.378;2023-06-10T13:58:34;33.20;63.70
44229;DHT22;29904;51.058;5.378;2023-06-10T14:01:04;33.20;65.10
44229;DHT22;29904;51.058;5.378;2023-06-10T14:03:30;33.30;63.50
44229;DHT22;29904;51.058;5.378;2023-06-10T14:05:56;33.10;62.50
44229;DHT22;29904;51.058;5.378;2023-06-10T14:08:22;33.00;62.00
44229;DHT22;29904;51.058;5.378;2023-06-10T14:10:47;33.00;61.60
44229;DHT22;29904;51.058;5.378;2023-06-10T14:13:15;33.00;62.00
44229;DHT22;29904;51.058;5.378;2023-06-10T14:15:41;33.10;60.80
44229;DHT22;29904;51.058;5.378;2023-06-10T14:18:07;33.00;62.30
44229;DHT22;29904;51.058;5.378;2023-06-10T14:20:32;33.00;62.30
44229;DHT22;29904;51.058;5.378;2023-06-10T14:22:58;33.10;63.80
44229;DHT22;29904;51.058;5.378;2023-06-10T14:25:24;33.10;61.50
44229;DHT22;29904;51.058;5.378;2023-06-10T14:27:50;33.00;62.70
44229;DHT22;29904;51.058;5.378;2023-06-10T14:30:18;33.10;62.10
44229;DHT22;29904;51.058;5.378;2023-06-10T14:32:44;33.10;63.40
44229;DHT22;29904;51.058;5.378;2023-06-10T14:35:10;33.30;62.80
44229;DHT22;29904;51.058;5.378;2023-06-10T14:37:38;33.40;63.10
44229;DHT22;29904;51.058;5.378;2023-06-10T14:40:04;33.30;63.30
44229;DHT22;29904;51.058;5.378;2023-06-10T14:42:30;33.20;65.10
44229;DHT22;29904;51.058;5.378;2023-06-10T14:44:59;33.10;65.10
44229;DHT22;29904;51.058;5.378;2023-06-10T14:47:26;33.10;65.20
44229;DHT22;29904;51.058;5.378;2023-06-10T14:49:52;33.10;66.00
44229;DHT22;29904;51.058;5.378;2023-06-10T14:52:18;33.10;65.50
44229;DHT22;29904;51.058;5.378;2023-06-10T14:54:44;33.20;65.90
44229;DHT22;29904;51.058;5.378;2023-06-10T14:57:12;33.30;66.00
44229;DHT22;29904;51.058;5.378;2023-06-10T14:59:41;33.50;67.20
44229;DHT22;29904;51.058;5.378;2023-06-10T15:02:07;33.70;64.40
44229;DHT22;29904;51.058;5.378;2023-06-10T15:04:33;33.70;64.80
44229;DHT22;29904;51.058;5.378;2023-06-10T15:07:01;33.60;65.60
44229;DHT22;29904;51.058;5.378;2023-06-10T15:09:26;33.40;65.30
44229;DHT22;29904;51.058;5.378;2023-06-10T15:11:52;33.20;67.50
44229;DHT22;29904;51.058;5.378;2023-06-10T15:14:20;33.40;66.00
44229;DHT22;29904;51.058;5.378;2023-06-10T15:16:46;33.30;65.60
44229;DHT22;29904;51.058;5.378;2023-06-10T15:19:11;33.00;63.50
44229;DHT22;29904;51.058;5.378;2023-06-10T15:21:37;32.80;64.30
44229;DHT22;29904;51.058;5.378;2023-06-10T15:24:03;33.00;66.60
44229;DHT22;29904;51.058;5.378;2023-06-10T15:26:31;32.90;66.30
44229;DHT22;29904;51.058;5.378;2023-06-10T15:28:58;33.00;66.20
44229;DHT22;29904;51.058;5.378;2023-06-10T15:31:51;32.90;67.20
44229;DHT22;29904;51.058;5.378;2023-06-10T15:34:20;32.90;67.50
44229;DHT22;29904;51.058;5.378;2023-06-10T15:36:47;32.80;66.70
44229;DHT22;29904;51.058;5.378;2023-06-10T15:39:13;32.70;67.40
44229;DHT22;29904;51.058;5.378;2023-06-10T15:41:40;32.70;67.40
44229;DHT22;29904;51.058;5.378;2023-06-10T15:44:07;32.80;67.00
44229;DHT22;29904;51.058;5.378;2023-06-10T15:46:36;32.60;67.40